Time;durP1;ratioP1;P1;durP2;ratioP2;P2;SDS_P1;SDS_P2;PMS_P1;PMS_P2;Temp;Humidity;BMP_temperature;BMP_pressure;BME280_temperature;BME280_humidity;BME280_pressure;Samples;Min_cycle;Max_cycle;Signal;HPM_P1;HPM_P2
2021/12/27 00:00:19;;;;;;;18.10;10.93;;;-0.60;99.90;;;;;;5065695;28;20080;-84
2021/12/27 00:02:53;;;;;;;20.85;10.45;;;-0.60;99.90;;;;;;5031872;28;20040;-83
2021/12/27 00:05:18;;;;;;;19.10;10.27;;;-0.60;99.90;;;;;;5048708;28;20098;-84
2021/12/27 00:07:48;;;;;;;20.23;10.38;;;1.30;99.90;;;;;;5031897;28;20032;-84
2021/12/27 00:10:14;;;;;;;20.17;10.63;;;0.40;99.90;;;;;;5032246;28;20516;-84
2021/12/27 00:12:40;;;;;;;;;;;-0.60;99.90;;;;;;5015365;28;20474;-84
2021/12/27 00:15:06;;;;;;;21.20;10.63;;;-0.60;99.90;;;;;;5048300;28;20243;-84
2021/12/27 00:17:32;;;;;;;18.08;9.77;;;-0.50;99.90;;;;;;5048002;28;20091;-84
2021/12/27 00:19:58;;;;;;;19.17;10.45;;;1.30;99.90;;;;;;5015238;28;20525;-84
2021/12/27 00:22:24;;;;;;;17.02;10.05;;;-0.50;99.90;;;;;;5031297;28;20041;-84
2021/12/27 00:24:50;;;;;;;17.27;9.40;;;-0.20;99.90;;;;;;5048339;28;20048;-84
2021/12/27 00:27:17;;;;;;;17.50;9.90;;;-0.50;99.90;;;;;;5030233;28;20516;-84
2021/12/27 00:29:44;;;;;;;20.73;10.38;;;1.40;99.90;;;;;;5028346;28;20041;-84
2021/12/27 00:32:10;;;;;;;18.27;10.35;;;-0.50;99.90;;;;;;5061698;28;20041;-84
2021/12/27 00:34:36;;;;;;;20.55;10.48;;;-0.60;99.90;;;;;;5044842;28;20497;-84
2021/12/27 00:37:07;;;;;;;18.30;10.43;;;-0.70;99.90;;;;;;5012117;28;20045;-84
2021/12/27 00:39:33;;;;;;;16.50;9.40;;;-0.70;99.90;;;;;;5012024;28;20460;-84
2021/12/27 00:42:00;;;;;;;20.42;10.95;;;-0.70;99.90;;;;;;5061207;28;20112;-84
2021/12/27 00:44:26;;;;;;;17.52;9.75;;;1.10;99.90;;;;;;5018102;28;20037;-84
2021/12/27 00:46:52;;;;;;;20.80;10.85;;;1.30;99.90;;;;;;5081384;28;20041;-84
2021/12/27 00:49:18;;;;;;;18.40;9.68;;;1.10;99.90;;;;;;5015723;28;20047;-84
2021/12/27 00:51:47;;;;;;;21.27;11.25;;;-0.80;99.90;;;;;;5064707;28;20128;-84
2021/12/27 00:54:13;;;;;;;19.48;9.65;;;0.90;99.90;;;;;;5031640;28;20489;-84
2021/12/27 00:56:39;;;;;;;21.95;10.82;;;-1.00;99.90;;;;;;5064782;28;20535;-84
2021/12/27 00:59:06;;;;;;;19.75;11.02;;;-1.00;99.90;;;;;;5031133;28;20087;-84
2021/12/27 01:01:32;;;;;;;19.92;11.23;;;-0.70;99.90;;;;;;5034850;28;20103;-84
2021/12/27 01:03:59;;;;;;;20.83;11.27;;;-0.60;99.90;;;;;;5011888;28;20029;-84
2021/12/27 01:06:25;;;;;;;19.33;10.95;;;0.10;99.90;;;;;;5044518;28;20049;-84
2021/12/27 01:08:52;;;;;;;20.25;10.63;;;-0.90;99.90;;;;;;5012753;28;20577;-84
2021/12/27 01:14:16;;;;;;;18.02;10.10;;;0.00;99.90;;;;;;5053589;28;20107;-84
2021/12/27 01:16:44;;;;;;;17.85;10.07;;;-1.00;99.90;;;;;;5037603;28;20090;-84
2021/12/27 01:19:10;;;;;;;17.65;10.20;;;-1.60;99.90;;;;;;5037976;28;20048;-84
2021/12/27 01:21:37;;;;;;;19.65;11.07;;;-0.90;99.90;;;;;;5037746;28;20037;-85
2021/12/27 01:24:04;;;;;;;18.45;11.63;;;-1.00;99.90;;;;;;5037991;28;20132;-84
2021/12/27 01:26:30;;;;;;;19.08;10.60;;;-1.00;99.90;;;;;;5054543;28;20463;-84
2021/12/27 01:28:57;;;;;;;17.95;11.02;;;-1.00;99.90;;;;;;5037956;28;20638;-84
2021/12/27 01:31:24;;;;;;;21.33;11.05;;;0.50;99.90;;;;;;5054926;28;20041;-84
2021/12/27 01:33:50;;;;;;;19.60;11.18;;;-1.00;99.90;;;;;;5034661;28;20045;-84
2021/12/27 01:36:17;;;;;;;19.13;9.80;;;0.90;99.90;;;;;;5034986;28;20034;-84
2021/12/27 01:38:45;;;;;;;21.85;10.70;;;1.30;99.90;;;;;;5033973;28;20065;-84
2021/12/27 01:41:13;;;;;;;18.75;10.50;;;0.40;99.90;;;;;;5018216;28;20590;-84
2021/12/27 01:43:40;;;;;;;21.20;12.10;;;-1.00;99.90;;;;;;5034289;28;20041;-84
2021/12/27 01:46:16;;;;;;;20.92;10.90;;;0.50;99.90;;;;;;5051026;28;20115;-84
2021/12/27 01:48:45;;;;;;;20.25;11.15;;;-0.90;99.90;;;;;;5050633;28;20065;-84
2021/12/27 01:51:15;;;;;;;21.30;11.43;;;-1.00;99.90;;;;;;5069035;28;20040;-85
2021/12/27 01:53:43;;;;;;;19.90;11.10;;;-0.90;99.90;;;;;;5053935;28;20040;-84
2021/12/27 01:56:11;;;;;;;20.83;11.18;;;1.30;99.90;;;;;;5020913;28;20033;-84
2021/12/27 01:58:36;;;;;;;18.70;11.07;;;-0.90;99.90;;;;;;5071215;28;20561;-84
2021/12/27 02:01:06;;;;;;;20.95;11.25;;;-1.00;99.90;;;;;;5037984;28;20079;-84
2021/12/27 02:03:33;;;;;;;21.58;12.63;;;-0.90;99.90;;;;;;5037450;28;20037;-84
2021/12/27 02:06:00;;;;;;;;;;;1.00;99.90;;;;;;5037652;28;20102;-84
2021/12/27 02:08:27;;;;;;;22.38;12.52;;;-1.00;99.90;;;;;;5037597;28;19921;-84
2021/12/27 02:10:53;;;;;;;21.77;11.70;;;-0.90;99.90;;;;;;5087994;28;20052;-84
2021/12/27 02:13:19;;;;;;;18.48;10.05;;;-0.80;99.90;;;;;;5054371;28;20215;-84
2021/12/27 02:15:45;;;;;;;18.27;10.88;;;-0.90;99.90;;;;;;5053524;28;20091;-84
2021/12/27 02:18:11;;;;;;;20.02;10.57;;;-0.10;99.90;;;;;;5070625;28;20127;-84
2021/12/27 02:20:39;;;;;;;22.48;12.90;;;-0.80;99.90;;;;;;5032525;28;20124;-84
2021/12/27 02:23:11;;;;;;;22.98;12.30;;;0.60;99.90;;;;;;5014419;28;20397;-84
2021/12/27 02:25:38;;;;;;;20.50;10.90;;;-0.50;99.90;;;;;;5014402;28;20068;-84
2021/12/27 02:28:06;;;;;;;20.77;12.05;;;-0.80;99.90;;;;;;5014546;28;20041;-85
2021/12/27 02:30:33;;;;;;;23.05;12.43;;;-0.50;99.90;;;;;;5047642;28;20203;-84
2021/12/27 02:33:05;;;;;;;20.65;10.57;;;-0.80;99.90;;;;;;4997987;28;20077;-84
2021/12/27 02:35:43;;;;;;;20.50;12.05;;;1.10;99.90;;;;;;5014444;28;20037;-84
2021/12/27 02:38:12;;;;;;;23.08;12.13;;;0.30;99.90;;;;;;5032306;28;20044;-84
2021/12/27 02:40:39;;;;;;;22.48;12.05;;;-0.80;99.90;;;;;;5034143;28;20041;-84
2021/12/27 02:43:12;;;;;;;21.08;11.75;;;1.00;99.90;;;;;;5034006;28;20052;-84
2021/12/27 02:45:41;;;;;;;22.98;12.77;;;-0.70;99.90;;;;;;5050403;28;20056;-84
2021/12/27 02:48:09;;;;;;;22.02;11.32;;;-0.70;99.90;;;;;;5067113;28;20138;-84
2021/12/27 02:50:35;;;;;;;21.98;13.13;;;-0.70;99.90;;;;;;5017687;28;20179;-84
2021/12/27 02:53:06;;;;;;;23.60;13.30;;;0.80;99.90;;;;;;5050850;28;20041;-84
2021/12/27 02:55:32;;;;;;;22.65;12.45;;;0.60;99.90;;;;;;5084423;28;20045;-84
2021/12/27 02:57:58;;;;;;;20.98;11.93;;;-0.70;99.90;;;;;;5017669;28;20047;-84
2021/12/27 03:00:46;;;;;;;23.80;13.55;;;-0.70;99.90;;;;;;5084280;28;20041;-84
2021/12/27 03:03:11;;;;;;;;;;;-0.70;99.90;;;;;;5034017;28;20045;-84
2021/12/27 03:05:38;;;;;;;22.00;11.70;;;0.50;99.90;;;;;;5033619;28;19916;-84
2021/12/27 03:08:04;;;;;;;25.40;12.25;;;0.90;99.90;;;;;;5049446;28;20463;-84
2021/12/27 03:10:34;;;;;;;25.60;12.88;;;-0.60;99.90;;;;;;5046806;28;20471;-85
2021/12/27 03:13:02;;;;;;;23.83;12.40;;;0.20;99.90;;;;;;5013599;28;20068;-84
2021/12/27 03:15:28;;;;;;;21.63;12.60;;;-0.60;99.90;;;;;;5063634;28;20044;-84
2021/12/27 03:17:55;;;;;;;23.48;12.60;;;1.00;99.90;;;;;;5029474;28;20139;-84
2021/12/27 03:20:24;;;;;;;23.23;12.75;;;-0.60;99.90;;;;;;5047210;28;20417;-84
2021/12/27 03:22:50;;;;;;;22.52;12.65;;;0.00;99.90;;;;;;5046388;28;20461;-84
2021/12/27 03:25:18;;;;;;;22.02;12.73;;;-0.40;99.90;;;;;;5077233;28;20071;-84
2021/12/27 03:27:45;;;;;;;22.90;12.68;;;-0.60;99.90;;;;;;5050035;28;20493;-85
2021/12/27 03:30:19;;;;;;;25.55;12.93;;;-0.60;99.90;;;;;;5033941;28;20037;-84
2021/12/27 03:32:45;;;;;;;23.15;12.45;;;-0.60;99.90;;;;;;5065769;28;20053;-84
2021/12/27 03:35:14;;;;;;;23.90;13.00;;;1.30;99.90;;;;;;5033621;28;20138;-84
2021/12/27 03:37:43;;;;;;;24.25;13.18;;;-0.60;99.90;;;;;;5067213;28;20140;-84
2021/12/27 03:40:10;;;;;;;25.13;13.80;;;-0.30;99.90;;;;;;5027103;28;20091;-84
2021/12/27 03:42:37;;;;;;;21.45;12.38;;;-0.60;99.90;;;;;;5046817;28;20375;-84
2021/12/27 03:45:04;;;;;;;22.67;13.45;;;-0.70;99.90;;;;;;5014265;28;20150;-84
2021/12/27 03:47:29;;;;;;;23.35;13.52;;;-0.50;99.90;;;;;;5030716;28;20128;-84
2021/12/27 03:49:55;;;;;;;22.15;13.40;;;-0.50;99.90;;;;;;5029408;28;20072;-84
2021/12/27 03:52:21;;;;;;;24.05;12.98;;;0.60;99.90;;;;;;5030296;28;20207;-84
2021/12/27 03:54:47;;;;;;;23.20;12.82;;;-0.50;99.90;;;;;;4996290;28;20041;-84
2021/12/27 03:57:15;;;;;;;25.20;13.90;;;1.00;99.90;;;;;;5032635;28;20143;-84
2021/12/27 04:02:14;;;;;;;22.40;13.07;;;0.30;99.90;;;;;;5032928;28;20265;-84
2021/12/27 04:04:41;;;;;;;23.42;13.00;;;-0.40;99.90;;;;;;5031906;28;20114;-84
2021/12/27 04:07:09;;;;;;;26.00;14.05;;;1.30;99.90;;;;;;5081942;28;20044;-84
2021/12/27 04:09:35;;;;;;;28.02;13.80;;;1.70;99.90;;;;;;5031938;28;20138;-84
2021/12/27 04:12:04;;;;;;;;;;;-0.50;99.90;;;;;;5028442;28;20081;-84
2021/12/27 04:14:30;;;;;;;29.33;14.55;;;-0.40;99.90;;;;;;5029002;28;19917;-84
2021/12/27 04:16:56;;;;;;;25.73;12.98;;;1.40;99.90;;;;;;5012084;28;20345;-84
2021/12/27 04:19:21;;;;;;;25.63;14.05;;;1.10;99.90;;;;;;5045318;28;20561;-84
2021/12/27 04:21:48;;;;;;;25.38;13.80;;;-0.50;99.90;;;;;;5045280;28;20083;-84
2021/12/27 04:24:14;;;;;;;26.38;13.98;;;0.40;99.90;;;;;;5012384;28;20088;-84
2021/12/27 04:26:40;;;;;;;23.52;13.50;;;1.20;99.90;;;;;;5028847;28;20037;-84
2021/12/27 04:29:06;;;;;;;26.17;13.80;;;-0.40;99.90;;;;;;5028073;28;20064;-84
2021/12/27 04:31:32;;;;;;;;;;;0.30;99.90;;;;;;5029322;28;20038;-84
2021/12/27 04:33:58;;;;;;;25.23;13.27;;;-0.40;99.90;;;;;;5044711;28;19990;-84
2021/12/27 04:36:23;;;;;;;26.88;14.32;;;-0.30;99.90;;;;;;5029048;28;20037;-84
2021/12/27 04:38:50;;;;;;;25.60;14.23;;;-0.10;99.90;;;;;;5028307;28;20045;-84
2021/12/27 04:41:21;;;;;;;28.95;15.20;;;1.40;99.90;;;;;;5012163;28;20041;-84
2021/12/27 04:43:47;;;;;;;25.95;13.75;;;1.30;99.90;;;;;;5045042;28;20558;-84
2021/12/27 04:46:12;;;;;;;27.58;14.63;;;-0.40;99.90;;;;;;5033205;28;20131;-84
2021/12/27 04:48:38;;;;;;;24.70;13.75;;;0.90;99.90;;;;;;5048096;28;20123;-84
2021/12/27 04:51:04;;;;;;;29.58;14.35;;;-0.50;99.90;;;;;;5064807;28;20469;-84
2021/12/27 04:53:29;;;;;;;28.75;14.52;;;1.40;99.90;;;;;;5015252;28;20178;-84
2021/12/27 04:55:55;;;;;;;27.98;14.20;;;-0.60;99.90;;;;;;5047961;28;20370;-84
2021/12/27 04:58:23;;;;;;;28.48;14.70;;;1.30;99.90;;;;;;5031589;28;20052;-84
2021/12/27 05:00:49;;;;;;;23.90;13.85;;;-0.30;99.90;;;;;;5048335;28;20045;-84
2021/12/27 05:03:15;;;;;;;28.05;14.90;;;-0.30;99.90;;;;;;5011940;28;20041;-84
2021/12/27 05:05:43;;;;;;;23.70;13.40;;;-0.20;99.90;;;;;;5044858;28;20465;-84
2021/12/27 05:08:09;;;;;;;24.83;13.80;;;0.00;99.90;;;;;;5028272;28;20663;-84
2021/12/27 05:10:36;;;;;;;27.00;13.82;;;-0.20;99.90;;;;;;5061572;28;20061;-84
2021/12/27 05:13:02;;;;;;;27.60;15.00;;;-0.20;99.90;;;;;;5027658;28;20049;-84
2021/12/27 05:15:27;;;;;;;27.85;14.60;;;1.90;99.90;;;;;;5011740;28;20437;-84
2021/12/27 05:17:53;;;;;;;26.92;14.70;;;-0.40;99.90;;;;;;5027900;28;20091;-84
2021/12/27 05:20:19;;;;;;;29.00;15.05;;;-0.20;99.90;;;;;;5017352;28;20052;-84
2021/12/27 05:22:44;;;;;;;26.83;14.57;;;1.30;99.90;;;;;;5031634;28;20045;-84
2021/12/27 05:25:11;;;;;;;24.47;13.93;;;0.90;99.90;;;;;;5031623;28;20287;-83
2021/12/27 05:27:41;;;;;;;25.52;14.27;;;-0.10;99.90;;;;;;5031392;28;20308;-84
2021/12/27 05:30:08;;;;;;;26.92;14.05;;;1.20;99.90;;;;;;5031051;28;20037;-84
2021/12/27 05:32:35;;;;;;;25.98;14.13;;;-0.10;99.90;;;;;;5048255;28;20033;-84
2021/12/27 05:35:02;;;;;;;27.45;14.80;;;-0.10;99.90;;;;;;5031245;28;20049;-84
2021/12/27 05:37:28;;;;;;;26.58;13.82;;;-0.10;99.90;;;;;;5080898;28;20093;-84
2021/12/27 05:39:54;;;;;;;26.48;14.43;;;1.70;99.90;;;;;;5080799;28;20179;-83
2021/12/27 05:42:20;;;;;;;28.50;14.65;;;1.90;99.90;;;;;;5082138;28;20079;-84
2021/12/27 05:44:46;;;;;;;28.77;14.82;;;0.10;99.90;;;;;;5031062;28;20504;-84
2021/12/27 05:47:11;;;;;;;29.33;15.73;;;-0.10;99.90;;;;;;5064818;28;20041;-84
2021/12/27 05:49:37;;;;;;;27.67;15.88;;;0.60;99.90;;;;;;5081957;28;20442;-84
2021/12/27 05:52:03;;;;;;;37.78;16.20;;;-0.30;99.90;;;;;;5030680;28;20480;-84
2021/12/27 05:54:29;;;;;;;33.75;17.00;;;-0.20;99.90;;;;;;5044731;28;20400;-84
2021/12/27 05:56:55;;;;;;;34.22;18.10;;;1.90;99.90;;;;;;5063017;28;20038;-84
2021/12/27 05:59:21;;;;;;;32.42;16.20;;;0.30;99.90;;;;;;5031968;28;20778;-84
2021/12/27 06:01:47;;;;;;;35.22;17.95;;;1.40;99.90;;;;;;5064594;28;20153;-84
2021/12/27 06:04:12;;;;;;;32.45;16.48;;;0.00;99.90;;;;;;5030924;28;20103;-84
2021/12/27 06:06:38;;;;;;;32.95;17.83;;;1.00;99.90;;;;;;5031794;28;20409;-84
2021/12/27 06:09:06;;;;;;;35.17;18.35;;;-0.20;99.90;;;;;;4997613;28;20037;-84
2021/12/27 06:11:32;;;;;;;35.65;18.90;;;-0.20;99.90;;;;;;5056744;28;20041;-84
2021/12/27 06:13:58;;;;;;;39.22;19.55;;;-0.30;99.90;;;;;;5034241;28;20059;-84
2021/12/27 06:16:24;;;;;;;;;;;-0.30;99.90;;;;;;5035331;28;20128;-83
2021/12/27 06:18:50;;;;;;;38.45;19.42;;;0.00;99.90;;;;;;5084440;28;20007;-84
2021/12/27 06:21:16;;;;;;;38.60;17.98;;;-0.30;99.90;;;;;;5084345;28;20041;-84
2021/12/27 06:23:42;;;;;;;36.33;18.75;;;-0.30;99.90;;;;;;5067956;28;20076;-84
2021/12/27 06:26:08;;;;;;;36.03;17.33;;;-0.40;99.90;;;;;;5017243;28;20489;-84
2021/12/27 06:28:34;;;;;;;37.33;18.23;;;1.90;99.90;;;;;;5013522;28;20052;-84
2021/12/27 06:31:01;;;;;;;35.47;17.20;;;-0.30;99.90;;;;;;5046527;28;20042;-84
2021/12/27 06:33:28;;;;;;;40.80;18.98;;;-0.30;99.90;;;;;;5030675;28;20051;-84
2021/12/27 06:35:54;;;;;;;37.20;18.77;;;-0.20;99.90;;;;;;5063388;28;20129;-84
2021/12/27 06:38:21;;;;;;;34.42;18.73;;;0.90;99.90;;;;;;5030701;28;20128;-83
2021/12/27 06:40:50;;;;;;;36.08;18.33;;;1.10;99.90;;;;;;5047006;28;20041;-84
2021/12/27 06:43:16;;;;;;;36.80;18.48;;;-0.20;99.90;;;;;;5030384;28;20047;-83
2021/12/27 06:45:43;;;;;;;40.22;19.13;;;-0.20;99.90;;;;;;5030125;28;20385;-84
2021/12/27 06:48:09;;;;;;;37.13;19.02;;;-0.20;99.90;;;;;;5063635;28;20493;-84
2021/12/27 06:50:35;;;;;;;37.38;17.98;;;-0.20;99.90;;;;;;5047142;28;20481;-84
2021/12/27 06:53:01;;;;;;;41.45;19.75;;;-0.20;99.90;;;;;;5013515;28;20470;-84
2021/12/27 06:55:27;;;;;;;38.38;19.17;;;1.20;99.90;;;;;;5047629;28;20045;-84
2021/12/27 06:57:53;;;;;;;38.10;19.67;;;-0.20;99.90;;;;;;5046207;28;20041;-84
2021/12/27 07:00:19;;;;;;;34.58;17.70;;;-0.20;99.90;;;;;;5046946;28;20426;-84
2021/12/27 07:02:45;;;;;;;40.40;20.10;;;1.70;99.90;;;;;;5017169;28;20032;-84
2021/12/27 07:05:11;;;;;;;;;;;1.40;99.90;;;;;;5066523;28;20052;-84
2021/12/27 07:07:38;;;;;;;37.22;18.58;;;1.90;99.90;;;;;;5066338;28;19969;-83
2021/12/27 07:10:07;;;;;;;36.28;17.42;;;-0.50;99.90;;;;;;5032748;28;20449;-83
2021/12/27 07:12:33;;;;;;;37.25;18.98;;;-0.10;99.90;;;;;;5016393;28;20064;-82
2021/12/27 07:14:59;;;;;;;34.25;17.83;;;-0.20;99.90;;;;;;5016528;28;20045;-84
2021/12/27 07:17:26;;;;;;;41.00;17.98;;;1.10;99.90;;;;;;5021654;28;20053;-84
2021/12/27 07:19:52;;;;;;;35.90;18.70;;;-0.40;99.90;;;;;;5029156;28;20524;-84
2021/12/27 07:22:18;;;;;;;39.90;19.23;;;1.60;99.90;;;;;;5063164;28;20116;-83
2021/12/27 07:24:44;;;;;;;42.35;19.02;;;0.80;99.90;;;;;;5046533;28;20578;-84
2021/12/27 07:27:10;;;;;;;41.40;19.23;;;-0.10;99.90;;;;;;5030358;28;20084;-84
2021/12/27 07:29:35;;;;;;;37.22;18.60;;;-0.10;99.90;;;;;;5045831;28;20544;-84
2021/12/27 07:32:01;;;;;;;38.83;19.05;;;-0.10;99.90;;;;;;5051019;28;20033;-84
2021/12/27 07:34:27;;;;;;;41.28;19.15;;;-0.10;99.90;;;;;;5016252;28;20072;-83
2021/12/27 07:36:55;;;;;;;42.58;21.08;;;1.80;99.90;;;;;;5032414;28;20083;-84
2021/12/27 07:39:22;;;;;;;40.33;19.73;;;1.70;99.90;;;;;;5016436;28;20067;-83
2021/12/27 07:41:49;;;;;;;45.70;21.15;;;1.80;99.90;;;;;;5065966;28;20048;-84
2021/12/27 07:44:15;;;;;;;41.80;21.05;;;-0.20;99.90;;;;;;5032377;28;20037;-83
2021/12/27 07:46:42;;;;;;;46.60;21.08;;;2.00;99.90;;;;;;5049222;28;20037;-84
2021/12/27 07:49:08;;;;;;;;;;;-0.20;99.90;;;;;;5070338;28;20128;-84
2021/12/27 07:51:34;;;;;;;44.70;20.63;;;-0.20;99.90;;;;;;5012845;28;19917;-83
2021/12/27 07:54:00;;;;;;;46.28;21.80;;;0.80;99.90;;;;;;5062116;28;20107;-83
2021/12/27 07:56:25;;;;;;;50.35;22.33;;;1.40;99.90;;;;;;5030520;28;20076;-83
2021/12/27 07:58:51;;;;;;;50.53;21.98;;;1.20;99.90;;;;;;5028948;28;20037;-83
2021/12/27 08:01:17;;;;;;;48.08;22.30;;;1.20;99.90;;;;;;5012281;28;20401;-83
2021/12/27 08:03:43;;;;;;;43.72;21.08;;;2.00;99.90;;;;;;5029111;28;20107;-83
2021/12/27 08:06:09;;;;;;;45.17;21.08;;;0.50;99.90;;;;;;5011563;28;20052;-83
2021/12/27 08:08:34;;;;;;;45.50;20.98;;;2.00;99.90;;;;;;5012415;28;20045;-83
2021/12/27 08:11:03;;;;;;;45.88;20.98;;;1.20;99.90;;;;;;5045027;28;20489;-83
2021/12/27 08:13:29;;;;;;;42.58;20.45;;;1.40;99.90;;;;;;5045346;28;20102;-84
2021/12/27 08:15:55;;;;;;;45.10;20.45;;;0.00;99.90;;;;;;5044911;28;20118;-83
2021/12/27 08:18:21;;;;;;;48.67;22.02;;;-0.10;99.90;;;;;;5028412;28;20052;-83
2021/12/27 08:20:47;;;;;;;52.60;22.70;;;2.10;99.90;;;;;;5011721;28;20489;-84
2021/12/27 08:23:14;;;;;;;43.15;20.67;;;0.90;99.90;;;;;;5061379;28;20049;-84
2021/12/27 08:25:40;;;;;;;43.80;20.23;;;0.70;99.90;;;;;;5012274;28;20064;-83
2021/12/27 08:28:06;;;;;;;44.28;20.30;;;0.00;99.90;;;;;;5011577;28;20438;-84
2021/12/27 08:30:32;;;;;;;45.15;20.52;;;0.00;99.90;;;;;;5061997;28;20046;-83
2021/12/27 08:32:59;;;;;;;46.38;20.77;;;0.40;99.90;;;;;;5011671;28;20044;-84
2021/12/27 08:35:26;;;;;;;41.47;20.23;;;1.50;99.90;;;;;;5029847;28;20515;-84
2021/12/27 08:37:52;;;;;;;40.83;20.45;;;0.00;99.90;;;;;;5012665;28;20079;-83
2021/12/27 08:40:18;;;;;;;43.83;22.33;;;0.10;99.90;;;;;;5011784;28;20041;-84
2021/12/27 08:42:44;;;;;;;48.08;20.85;;;0.90;99.90;;;;;;5011981;28;20049;-84
2021/12/27 08:45:10;;;;;;;47.13;21.60;;;1.50;99.90;;;;;;5011155;28;20060;-83
2021/12/27 08:47:37;;;;;;;48.65;21.35;;;1.80;99.90;;;;;;5028354;28;20061;-84
2021/12/27 08:50:05;;;;;;;45.38;22.02;;;0.10;99.90;;;;;;5011032;28;20033;-83
2021/12/27 08:52:32;;;;;;;51.10;22.48;;;0.10;99.90;;;;;;5012179;28;20485;-83
2021/12/27 08:55:02;;;;;;;49.25;22.20;;;2.10;99.90;;;;;;5010834;28;20044;-83
2021/12/27 08:57:28;;;;;;;56.45;22.75;;;0.00;99.90;;;;;;5044613;28;20094;-84
2021/12/27 08:59:54;;;;;;;52.53;23.60;;;0.10;99.90;;;;;;5011933;28;20049;-83
2021/12/27 09:02:19;;;;;;;49.88;20.98;;;1.30;99.90;;;;;;5044136;28;20131;-84
2021/12/27 09:04:45;;;;;;;55.45;22.15;;;0.10;99.90;;;;;;5044411;28;20049;-84
2021/12/27 09:07:12;;;;;;;56.80;22.25;;;0.20;99.90;;;;;;5027581;28;20041;-84
2021/12/27 09:09:39;;;;;;;51.42;22.60;;;2.30;99.90;;;;;;5027941;28;20049;-84
2021/12/27 09:12:06;;;;;;;56.35;22.13;;;1.40;99.90;;;;;;5010344;28;20050;-84
2021/12/27 09:14:32;;;;;;;58.13;22.95;;;0.30;99.90;;;;;;5044357;28;20049;-84
2021/12/27 09:16:58;;;;;;;51.60;22.40;;;1.70;99.90;;;;;;5027669;28;20120;-83
2021/12/27 09:19:23;;;;;;;55.78;23.00;;;0.30;99.90;;;;;;5027531;28;20045;-84
2021/12/27 09:21:51;;;;;;;52.20;22.52;;;0.30;99.90;;;;;;5027726;28;20038;-84
2021/12/27 09:24:17;;;;;;;55.35;20.33;;;0.40;99.90;;;;;;5043685;28;20361;-83
2021/12/27 09:26:42;;;;;;;55.88;21.52;;;2.20;99.90;;;;;;5045106;28;20068;-84
2021/12/27 09:29:08;;;;;;;48.10;20.55;;;0.40;99.90;;;;;;5080765;28;20047;-83
2021/12/27 09:31:35;;;;;;;49.13;21.75;;;0.40;99.90;;;;;;5034490;28;20045;-83
2021/12/27 09:34:04;;;;;;;53.03;22.30;;;0.40;99.90;;;;;;5068248;28;20041;-83
2021/12/27 09:36:30;;;;;;;50.53;20.67;;;1.20;99.90;;;;;;5084936;28;20079;-83
2021/12/27 09:38:56;;;;;;;55.17;21.15;;;2.30;99.90;;;;;;5085445;28;20080;-83
2021/12/27 09:41:24;;;;;;;54.28;21.17;;;0.50;99.90;;;;;;5084826;28;20052;-84
2021/12/27 09:43:50;;;;;;;52.20;22.20;;;2.10;99.90;;;;;;5015178;28;20067;-84
2021/12/27 09:46:16;;;;;;;62.85;23.13;;;0.50;99.90;;;;;;5031183;28;20037;-83
2021/12/27 09:48:42;;;;;;;61.33;24.45;;;2.00;99.90;;;;;;5015108;28;20041;-84
2021/12/27 09:51:10;;;;;;;55.25;21.88;;;0.40;99.90;;;;;;5031076;28;20041;-84
2021/12/27 09:53:37;;;;;;;70.18;24.42;;;0.50;99.90;;;;;;5065246;28;20045;-84
2021/12/27 09:56:07;;;;;;;65.57;25.63;;;0.60;99.90;;;;;;5014566;28;20366;-84
2021/12/27 09:58:33;;;;;;;71.25;25.90;;;0.50;99.90;;;;;;5065256;28;20045;-84
2021/12/27 10:01:02;;;;;;;70.57;24.67;;;0.90;99.90;;;;;;5014653;28;20041;-84
2021/12/27 10:03:29;;;;;;;56.95;21.98;;;0.60;99.90;;;;;;5065164;28;20051;-84
2021/12/27 10:06:08;;;;;;;67.95;24.35;;;2.80;99.90;;;;;;5048136;28;20320;-84
2021/12/27 10:08:34;;;;;;;74.45;25.02;;;2.60;99.90;;;;;;5014480;28;20048;-84
2021/12/27 10:11:00;;;;;;;63.00;23.65;;;2.30;99.90;;;;;;4997841;28;20422;-84
2021/12/27 10:13:26;;;;;;;70.40;25.33;;;1.10;99.90;;;;;;5063884;28;20527;-83
2021/12/27 10:15:51;;;;;;;72.90;25.77;;;0.70;99.90;;;;;;5047622;28;20037;-84
2021/12/27 10:18:17;;;;;;;72.63;26.53;;;0.70;99.90;;;;;;5030500;28;20128;-83
2021/12/27 10:20:45;;;;;;;82.43;26.13;;;0.70;99.90;;;;;;5014923;28;20414;-83
2021/12/27 10:23:18;;;;;;;75.95;26.65;;;0.80;99.90;;;;;;5013531;28;20076;-83
2021/12/27 10:25:44;;;;;;;72.57;26.35;;;0.80;99.90;;;;;;5064299;28;20056;-83
2021/12/27 10:28:10;;;;;;;88.80;24.55;;;0.80;99.90;;;;;;5030725;28;20045;-84
2021/12/27 10:30:40;;;;;;;87.72;27.92;;;1.80;99.90;;;;;;5048029;28;20045;-83
2021/12/27 10:33:23;;;;;;;99.45;28.20;;;0.80;99.90;;;;;;5030532;28;20045;-83
2021/12/27 10:35:56;;;;;;;111.28;29.98;;;0.80;99.90;;;;;;5064451;28;20037;-84
2021/12/27 10:38:31;;;;;;;98.30;29.25;;;1.30;99.90;;;;;;5064448;28;20075;-83
2021/12/27 10:41:00;;;;;;;97.40;29.50;;;0.80;99.90;;;;;;5014934;28;20041;-84
2021/12/27 10:43:41;;;;;;;100.22;28.55;;;0.90;99.90;;;;;;5013977;28;20084;-84
2021/12/27 10:46:15;;;;;;;105.60;29.48;;;1.90;99.90;;;;;;5064358;28;20056;-83
2021/12/27 10:48:47;;;;;;;95.00;29.45;;;0.90;99.90;;;;;;5031050;28;20083;-83
2021/12/27 10:51:14;;;;;;;111.18;29.25;;;0.90;99.90;;;;;;5047608;28;20120;-84
2021/12/27 10:53:50;;;;;;;97.55;27.23;;;1.00;99.90;;;;;;5032055;28;20037;-83
2021/12/27 10:56:18;;;;;;;104.22;28.45;;;1.00;99.90;;;;;;5014687;28;20037;-84
2021/12/27 10:58:51;;;;;;;108.38;30.42;;;1.00;99.90;;;;;;5031496;28;20099;-84
2021/12/27 11:01:18;;;;;;;108.25;29.52;;;1.10;99.90;;;;;;5030966;28;20111;-85
2021/12/27 11:03:45;;;;;;;122.00;30.27;;;1.50;99.90;;;;;;5014501;28;20045;-85
2021/12/27 11:06:16;;;;;;;120.72;30.52;;;1.10;99.90;;;;;;5031139;28;20125;-84
2021/12/27 11:08:44;;;;;;;117.88;32.65;;;1.10;99.90;;;;;;5034336;28;20044;-84
2021/12/27 11:11:10;;;;;;;133.38;32.72;;;1.10;99.90;;;;;;5050313;28;20041;-84
2021/12/27 11:13:36;;;;;;;115.32;31.13;;;3.20;99.90;;;;;;5067776;28;20068;-84
2021/12/27 11:16:02;;;;;;;135.95;31.77;;;2.20;99.90;;;;;;5034192;28;20041;-84
2021/12/27 11:18:28;;;;;;;111.15;30.45;;;1.20;99.90;;;;;;5084063;28;20080;-84
2021/12/27 11:20:58;;;;;;;133.23;31.92;;;1.20;99.90;;;;;;5036541;28;20122;-84
2021/12/27 11:23:26;;;;;;;112.90;29.08;;;1.30;99.90;;;;;;5013306;28;20041;-84
2021/12/27 11:26:05;;;;;;;133.57;31.45;;;2.70;99.90;;;;;;4998507;28;20496;-84
2021/12/27 11:28:32;;;;;;;139.82;32.78;;;3.00;99.90;;;;;;5014174;28;20451;-84
2021/12/27 11:31:04;;;;;;;138.20;34.58;;;2.10;99.90;;;;;;5047416;28;20432;-84
2021/12/27 11:33:30;;;;;;;146.68;33.35;;;2.00;99.90;;;;;;5030392;28;20042;-84
2021/12/27 11:35:59;;;;;;;144.55;34.00;;;1.30;99.90;;;;;;5014365;28;20353;-84
2021/12/27 11:38:35;;;;;;;140.32;32.17;;;1.30;99.90;;;;;;5074612;28;20141;-84
2021/12/27 11:41:07;;;;;;;175.32;34.30;;;1.30;99.90;;;;;;5032717;28;20118;-84
2021/12/27 11:44:06;;;;;;;163.68;34.63;;;1.30;99.90;;;;;;5065984;28;20052;-84
2021/12/27 11:46:52;;;;;;;175.85;35.40;;;1.30;99.90;;;;;;5050314;28;20434;-84
2021/12/27 11:49:37;;;;;;;181.85;36.95;;;1.30;99.90;;;;;;5066407;28;20060;-84
2021/12/27 11:52:15;;;;;;;161.18;33.92;;;1.40;99.90;;;;;;5049967;28;20045;-84
2021/12/27 11:54:51;;;;;;;185.82;37.53;;;1.30;99.90;;;;;;5032545;28;20049;-84
2021/12/27 11:57:45;;;;;;;242.40;40.77;;;1.40;99.90;;;;;;5066390;28;20353;-84
2021/12/27 12:00:17;;;;;;;195.70;36.30;;;1.40;99.90;;;;;;5066000;28;20087;-84
2021/12/27 12:03:06;;;;;;;243.80;40.10;;;1.40;99.90;;;;;;5083303;28;20040;-84
2021/12/27 12:05:36;;;;;;;149.50;30.25;;;1.30;99.90;;;;;;5041162;28;20045;-84
2021/12/27 12:08:06;;;;;;;213.75;37.75;;;1.40;99.90;;;;;;5066564;28;20045;-84
2021/12/27 12:10:33;;;;;;;195.75;37.28;;;1.40;99.90;;;;;;5018014;28;20405;-84
2021/12/27 12:13:23;;;;;;;231.55;40.28;;;2.60;99.90;;;;;;5029993;28;20072;-84
2021/12/27 12:16:14;;;;;;;164.65;33.90;;;1.40;99.90;;;;;;5062901;28;20057;-84
2021/12/27 12:18:52;;;;;;;182.23;35.13;;;1.50;99.90;;;;;;5046500;28;20048;-84
2021/12/27 12:21:33;;;;;;;173.18;35.40;;;1.50;99.90;;;;;;5045685;28;20056;-84
2021/12/27 12:24:06;;;;;;;221.35;37.35;;;1.50;99.90;;;;;;5029922;28;20103;-84
2021/12/27 12:26:50;;;;;;;238.15;40.75;;;1.60;99.90;;;;;;5054487;28;20098;-84
2021/12/27 12:29:16;;;;;;;174.55;37.45;;;1.60;99.90;;;;;;5082684;28;20397;-84
2021/12/27 12:31:42;;;;;;;188.65;37.60;;;1.70;99.90;;;;;;5066588;28;20061;-84
2021/12/27 12:34:11;;;;;;;198.13;37.40;;;2.90;99.90;;;;;;5049522;28;20037;-84
2021/12/27 12:36:49;;;;;;;185.63;35.78;;;3.00;99.90;;;;;;5049265;28;20029;-83
2021/12/27 12:39:15;;;;;;;216.82;41.80;;;1.80;99.90;;;;;;5082896;28;20098;-84
2021/12/27 12:41:41;;;;;;;229.45;43.05;;;1.80;99.90;;;;;;5030668;28;20080;-83